Time;durP1;ratioP1;P1;durP2;ratioP2;P2;SDS_P1;SDS_P2;PMS_P1;PMS_P2;Temp;Humidity;BMP_temperature;BMP_pressure;BME280_temperature;BME280_humidity;BME280_pressure;Samples;Min_cycle;Max_cycle;Signal;HPM_P1;HPM_P2
2023/12/02 00:03:21;;;;;;;;;;;16.50;53.20;;;;;;10300570;28;93506;-47
2023/12/02 00:08:23;;;;;;;;;;;16.40;53.00;;;;;;10297499;28;94451;-45
2023/12/02 00:13:25;;;;;;;;;;;16.40;52.90;;;;;;10289331;28;93893;-46
2023/12/02 00:18:26;;;;;;;;;;;16.40;53.30;;;;;;10272576;28;93781;-46
2023/12/02 00:23:28;;;;;;;;;;;16.30;54.80;;;;;;10256204;28;92950;-49
2023/12/02 00:28:30;;;;;;;;;;;16.30;53.80;;;;;;10287548;28;93537;-47
2023/12/02 00:33:31;;;;;;;;;;;16.30;53.60;;;;;;10298154;28;96233;-48
2023/12/02 00:38:33;;;;;;;;;;;16.20;53.40;;;;;;10291740;28;94063;-48
2023/12/02 00:43:35;;;;;;;;;;;16.20;53.20;;;;;;10295337;28;93859;-45
2023/12/02 00:48:37;;;;;;;;;;;16.20;52.90;;;;;;10283111;28;93413;-51
2023/12/02 00:53:39;;;;;;;;;;;16.20;52.90;;;;;;10269986;28;93560;-47
2023/12/02 00:58:41;;;;;;;;;;;16.20;52.70;;;;;;10283238;28;94285;-48
2023/12/02 01:03:43;;;;;;;;;;;16.20;52.70;;;;;;10280439;28;95524;-47
2023/12/02 01:08:45;;;;;;;;;;;16.20;52.60;;;;;;10282412;28;93833;-46
2023/12/02 01:13:46;;;;;;;;;;;16.10;53.10;;;;;;10277508;28;94137;-49
2023/12/02 01:18:48;;;;;;;;;;;16.00;53.40;;;;;;10299880;28;94479;-48
2023/12/02 01:23:51;;;;;;;;;;;16.00;53.50;;;;;;10283366;28;96373;-46
2023/12/02 01:28:53;;;;;;;;;;;16.00;53.20;;;;;;10273020;28;93402;-47
2023/12/02 01:33:55;;;;;;;;;;;16.00;53.10;;;;;;10280582;28;92809;-47
2023/12/02 01:38:56;;;;;;;;;;;16.00;52.90;;;;;;10294204;28;93571;-48
2023/12/02 01:43:58;;;;;;;;;;;16.00;52.80;;;;;;10272365;28;94863;-48
2023/12/02 01:49:00;;;;;;;;;;;15.90;52.60;;;;;;10278955;28;93479;-65
2023/12/02 01:54:02;;;;;;;;;;;15.90;52.40;;;;;;10275298;28;93464;-49
2023/12/02 01:59:04;;;;;;;;;;;15.90;52.30;;;;;;10270783;28;93959;-48
2023/12/02 02:04:06;;;;;;;;;;;15.90;52.30;;;;;;8843491;22;94809;-64
2023/12/02 02:09:08;;;;;;;;;;;15.90;53.20;;;;;;10289578;28;93797;-67
2023/12/02 02:14:10;;;;;;;;;;;15.80;53.20;;;;;;10301308;28;96868;-66
2023/12/02 02:19:12;;;;;;;;;;;15.70;53.10;;;;;;10325188;28;94521;-65
2023/12/02 02:24:14;;;;;;;;;;;15.80;53.10;;;;;;10323000;28;94005;-65
2023/12/02 02:29:16;;;;;;;;;;;15.90;52.90;;;;;;10324630;28;93498;-65
2023/12/02 02:34:18;;;;;;;;;;;15.90;52.60;;;;;;10298428;28;93890;-65
2023/12/02 02:39:20;;;;;;;;;;;15.90;52.20;;;;;;10319914;28;93664;-65
2023/12/02 02:44:22;;;;;;;;;;;16.00;52.00;;;;;;10323927;28;93942;-64
2023/12/02 02:49:23;;;;;;;;;;;16.00;51.90;;;;;;10324054;28;92960;-65
2023/12/02 02:54:25;;;;;;;;;;;16.00;51.70;;;;;;10318590;28;92693;-66
2023/12/02 02:59:28;;;;;;;;;;;16.00;51.70;;;;;;10307365;28;94522;-66
2023/12/02 03:04:30;;;;;;;;;;;15.90;52.30;;;;;;10295247;28;95580;-65
2023/12/02 03:09:32;;;;;;;;;;;15.90;52.60;;;;;;10329955;28;94645;-65
2023/12/02 03:14:34;;;;;;;;;;;15.80;53.80;;;;;;10330315;28;94723;-65
2023/12/02 03:19:36;;;;;;;;;;;15.80;52.80;;;;;;10331527;28;93775;-66
2023/12/02 03:24:38;;;;;;;;;;;15.80;52.80;;;;;;10330973;28;93548;-65
2023/12/02 03:29:39;;;;;;;;;;;15.80;52.80;;;;;;10313456;28;92608;-64
2023/12/02 03:34:41;;;;;;;;;;;15.80;52.90;;;;;;10330942;28;93208;-66
2023/12/02 03:39:43;;;;;;;;;;;15.70;53.00;;;;;;10332017;28;93798;-67
2023/12/02 03:44:45;;;;;;;;;;;15.70;53.10;;;;;;10322330;28;94044;-65
2023/12/02 03:49:46;;;;;;;;;;;15.70;53.00;;;;;;10310337;28;94551;-67
2023/12/02 03:54:48;;;;;;;;;;;15.70;53.10;;;;;;10323668;28;96594;-66
2023/12/02 03:59:50;;;;;;;;;;;15.80;53.10;;;;;;10319911;28;93538;-65
2023/12/02 04:04:52;;;;;;;;;;;15.80;52.90;;;;;;10327880;28;93429;-65
2023/12/02 04:09:53;;;;;;;;;;;15.90;52.80;;;;;;10329508;28;93560;-64
2023/12/02 04:14:55;;;;;;;;;;;15.80;52.70;;;;;;10325784;28;93468;-65
2023/12/02 04:20:00;;;;;;;;;;;15.80;52.70;;;;;;10331335;28;92987;-64
2023/12/02 04:25:02;;;;;;;;;;;15.80;52.70;;;;;;10314537;28;95090;-67
2023/12/02 04:30:04;;;;;;;;;;;15.80;52.70;;;;;;10329491;28;93404;-65
2023/12/02 04:35:07;;;;;;;;;;;15.80;52.70;;;;;;10337017;28;96492;-65
2023/12/02 04:40:11;;;;;;;;;;;15.70;52.90;;;;;;10340270;28;93446;-65
2023/12/02 04:45:13;;;;;;;;;;;15.80;52.90;;;;;;10332094;28;96380;-66
2023/12/02 04:50:15;;;;;;;;;;;15.80;52.70;;;;;;10333946;28;93506;-65
2023/12/02 04:55:17;;;;;;;;;;;15.90;52.60;;;;;;10330878;28;93556;-65
2023/12/02 05:00:18;;;;;;;;;;;15.90;52.60;;;;;;10328164;28;94129;-65
2023/12/02 05:05:21;;;;;;;;;;;15.80;52.50;;;;;;10311154;28;93997;-65
2023/12/02 05:10:23;;;;;;;;;;;15.80;52.50;;;;;;10308444;28;93968;-65
2023/12/02 05:15:25;;;;;;;;;;;15.80;52.60;;;;;;10325993;28;93866;-68
2023/12/02 05:20:27;;;;;;;;;;;15.70;52.60;;;;;;10309350;28;92726;-66
2023/12/02 05:25:28;;;;;;;;;;;15.70;52.60;;;;;;10307741;28;94114;-65
2023/12/02 05:30:33;;;;;;;;;;;15.70;52.70;;;;;;10325795;28;94444;-65
2023/12/02 05:35:35;;;;;;;;;;;15.60;52.70;;;;;;10321471;28;96749;-66
2023/12/02 05:40:37;;;;;;;;;;;15.60;52.80;;;;;;10326443;28;93800;-63
2023/12/02 05:45:39;;;;;;;;;;;15.60;53.10;;;;;;10326655;28;92803;-66
2023/12/02 05:50:41;;;;;;;;;;;15.70;53.20;;;;;;10323950;28;94118;-66
2023/12/02 05:55:43;;;;;;;;;;;16.00;53.00;;;;;;10325134;28;93161;-66
2023/12/02 06:00:44;;;;;;;;;;;16.30;52.50;;;;;;10324024;28;94770;-65
2023/12/02 06:05:46;;;;;;;;;;;16.60;51.80;;;;;;10302196;28;94872;-65
2023/12/02 06:10:48;;;;;;;;;;;16.80;51.40;;;;;;10301394;28;95610;-66
2023/12/02 06:15:50;;;;;;;;;;;17.00;51.20;;;;;;10309097;28;94052;-66
2023/12/02 06:20:52;;;;;;;;;;;17.20;50.90;;;;;;10307819;28;94207;-66
2023/12/02 06:25:55;;;;;;;;;;;17.30;50.50;;;;;;10324710;28;96837;-65
2023/12/02 06:30:57;;;;;;;;;;;17.30;50.30;;;;;;10312182;28;93936;-66
2023/12/02 06:35:59;;;;;;;;;;;17.30;50.30;;;;;;10305465;28;93698;-66
2023/12/02 06:41:01;;;;;;;;;;;17.20;51.00;;;;;;10329111;28;94830;-66
2023/12/02 06:46:03;;;;;;;;;;;17.10;50.60;;;;;;10323486;28;93810;-65
2023/12/02 06:51:05;;;;;;;;;;;17.10;51.00;;;;;;10337615;28;93498;-65
2023/12/02 06:56:21;;;;;;;;;;;17.10;51.10;;;;;;10339869;28;93720;-66
2023/12/02 07:01:26;;;;;;;;;;;17.10;51.10;;;;;;10335497;28;93725;-68
2023/12/02 07:06:28;;;;;;;;;;;17.00;51.20;;;;;;10323721;28;93759;-65
2023/12/02 07:11:30;;;;;;;;;;;17.00;51.40;;;;;;10329718;28;94725;-65
2023/12/02 07:16:32;;;;;;;;;;;16.90;51.60;;;;;;10327676;28;95959;-66
2023/12/02 07:21:34;;;;;;;;;;;17.00;51.80;;;;;;10323496;28;93809;-66
2023/12/02 07:26:36;;;;;;;;;;;17.00;52.20;;;;;;10300499;28;96735;-66
2023/12/02 07:31:38;;;;;;;;;;;16.90;52.20;;;;;;10335544;28;93759;-66
2023/12/02 07:36:40;;;;;;;;;;;16.90;52.70;;;;;;10335189;28;94632;-67
2023/12/02 07:41:42;;;;;;;;;;;16.90;53.50;;;;;;10330378;28;94927;-66
2023/12/02 07:46:44;;;;;;;;;;;17.10;53.90;;;;;;10315630;28;94681;-65
2023/12/02 07:51:46;;;;;;;;;;;17.30;53.50;;;;;;10331324;28;92432;-65
2023/12/02 07:56:48;;;;;;;;;;;17.60;53.40;;;;;;10335979;28;93858;-65
2023/12/02 08:01:49;;;;;;;;;;;17.80;53.10;;;;;;10297805;28;94097;-64
2023/12/02 08:06:51;;;;;;;;;;;18.00;52.90;;;;;;10324367;28;95709;-65
2023/12/02 08:11:53;;;;;;;;;;;18.20;52.60;;;;;;10311944;28;93399;-65
2023/12/02 08:16:55;;;;;;;;;;;18.30;52.10;;;;;;10323470;28;93836;-65
2023/12/02 08:21:57;;;;;;;;;;;18.30;51.70;;;;;;10332160;28;93452;-65
2023/12/02 08:26:59;;;;;;;;;;;18.40;51.50;;;;;;10326977;28;94525;-65
2023/12/02 08:32:01;;;;;;;;;;;18.50;51.30;;;;;;10331653;28;93545;-64
2023/12/02 08:37:03;;;;;;;;;;;18.50;51.10;;;;;;10332652;28;94570;-65
2023/12/02 08:42:05;;;;;;;;;;;18.60;50.80;;;;;;10334945;28;94240;-64
2023/12/02 08:47:07;;;;;;;;;;;18.70;50.70;;;;;;10334136;28;93515;-65
2023/12/02 08:52:09;;;;;;;;;;;18.70;50.30;;;;;;10330049;28;94538;-66
2023/12/02 08:57:11;;;;;;;;;;;18.70;50.10;;;;;;10325683;28;96666;-65
2023/12/02 09:02:13;;;;;;;;;;;18.60;50.30;;;;;;10316060;28;93656;-65
2023/12/02 09:07:15;;;;;;;;;;;18.60;50.40;;;;;;10327593;28;94696;-65
2023/12/02 09:12:17;;;;;;;;;;;18.60;50.40;;;;;;10327558;28;93442;-65
2023/12/02 09:17:35;;;;;;;;;;;18.60;50.30;;;;;;10327281;28;93405;-65
2023/12/02 09:22:44;;;;;;;;;;;18.60;50.20;;;;;;10319192;28;93466;-65
2023/12/02 09:28:09;;;;;;;;;;;18.80;50.10;;;;;;10308440;28;93813;-66
2023/12/02 09:33:11;;;;;;;;;;;18.80;49.80;;;;;;10327712;28;92707;-65
2023/12/02 09:38:14;;;;;;;;;;;18.90;49.70;;;;;;10326143;28;94312;-65
2023/12/02 09:43:32;;;;;;;;;;;19.00;49.40;;;;;;10323105;28;94895;-64
2023/12/02 09:48:36;;;;;;;;;;;19.10;49.20;;;;;;10304068;28;97214;-65
2023/12/02 09:53:44;;;;;;;;;;;18.90;49.20;;;;;;10323337;28;94431;-64
2023/12/02 09:58:46;;;;;;;;;;;18.80;49.40;;;;;;10323575;28;94647;-65
2023/12/02 10:03:53;;;;;;;;;;;18.80;49.60;;;;;;10300063;28;97640;-64
2023/12/02 10:09:02;;;;;;;;;;;18.80;49.60;;;;;;10285119;28;94388;-65
2023/12/02 10:14:10;;;;;;;;;;;18.80;49.60;;;;;;10325743;28;94437;-64
2023/12/02 10:19:16;;;;;;;;;;;18.90;49.50;;;;;;10324477;28;94454;-64
2023/12/02 10:24:24;;;;;;;;;;;19.00;49.40;;;;;;10325167;28;92859;-65
2023/12/02 10:29:26;;;;;;;;;;;19.00;49.30;;;;;;10283469;28;93526;-65
2023/12/02 10:34:31;;;;;;;;;;;18.90;49.30;;;;;;10316331;28;94670;-65
2023/12/02 10:39:43;;;;;;;;;;;18.80;49.30;;;;;;10323744;28;98041;-65
2023/12/02 10:44:47;;;;;;;;;;;18.70;49.50;;;;;;10329941;28;93640;-64
2023/12/02 10:49:49;;;;;;;;;;;18.80;49.70;;;;;;10326717;28;92623;-65
2023/12/02 10:54:52;;;;;;;;;;;18.80;49.60;;;;;;10324929;28;94501;-64
2023/12/02 10:59:55;;;;;;;;;;;18.90;49.50;;;;;;10312968;28;94561;-65
2023/12/02 11:05:08;;;;;;;;;;;18.90;49.20;;;;;;10322026;28;93598;-65
2023/12/02 11:10:13;;;;;;;;;;;18.90;49.10;;;;;;10317292;28;94635;-65
2023/12/02 11:15:19;;;;;;;;;;;18.80;49.40;;;;;;10322600;28;94523;-65
2023/12/02 11:20:23;;;;;;;;;;;18.70;49.60;;;;;;10324636;28;94827;-65
2023/12/02 11:25:26;;;;;;;;;;;18.70;49.60;;;;;;10308324;28;94630;-64
2023/12/02 11:30:28;;;;;;;;;;;18.80;49.70;;;;;;10328868;28;96432;-66
2023/12/02 11:35:41;;;;;;;;;;;18.80;49.50;;;;;;10328866;28;93510;-65
2023/12/02 11:41:11;;;;;;;;;;;18.90;49.40;;;;;;10288751;28;93815;-66
2023/12/02 11:46:15;;;;;;;;;;;18.80;49.40;;;;;;10319579;28;94582;-66
2023/12/02 11:51:16;;;;;;;;;;;18.70;49.40;;;;;;10307407;28;93476;-66
2023/12/02 11:56:19;;;;;;;;;;;18.70;49.60;;;;;;10328731;28;93809;-64
2023/12/02 12:01:34;;;;;;;;;;;18.70;51.70;;;;;;10303110;28;94453;-64
2023/12/02 12:06:41;;;;;;;;;;;18.70;51.50;;;;;;10301708;28;93200;-66
2023/12/02 12:11:44;;;;;;;;;;;18.80;51.50;;;;;;10324510;28;93618;-65
2023/12/02 12:16:46;;;;;;;;;;;18.90;51.50;;;;;;10308115;28;94451;-65
2023/12/02 12:21:48;;;;;;;;;;;18.90;51.40;;;;;;10318102;28;96307;-64
2023/12/02 12:26:50;;;;;;;;;;;18.70;51.40;;;;;;10326264;28;94859;-65
2023/12/02 12:31:55;;;;;;;;;;;18.60;51.50;;;;;;10328478;28;94121;-64
2023/12/02 12:36:57;;;;;;;;;;;18.60;51.90;;;;;;10316971;28;94401;-64
2023/12/02 12:42:00;;;;;;;;;;;18.50;51.50;;;;;;10328852;28;94455;-64
2023/12/02 12:47:03;;;;;;;;;;;18.50;51.30;;;;;;10318915;28;93652;-64
2023/12/02 12:52:07;;;;;;;;;;;18.50;51.20;;;;;;10336645;28;93563;-65
2023/12/02 12:57:14;;;;;;;;;;;18.60;50.90;;;;;;10325149;28;93961;-64
2023/12/02 13:02:39;;;;;;;;;;;18.60;50.70;;;;;;10312281;28;94644;-65
2023/12/02 13:07:49;;;;;;;;;;;18.60;50.60;;;;;;10281890;28;95235;-64
2023/12/02 13:12:57;;;;;;;;;;;18.50;50.60;;;;;;10312042;28;96319;-65
2023/12/02 13:17:59;;;;;;;;;;;18.50;50.70;;;;;;10288776;28;94214;-64
2023/12/02 13:23:03;;;;;;;;;;;18.50;50.70;;;;;;10322857;28;93844;-63
2023/12/02 13:28:06;;;;;;;;;;;18.40;51.00;;;;;;10306989;28;94821;-64
2023/12/02 13:33:15;;;;;;;;;;;18.40;51.10;;;;;;10297896;28;94667;-64
2023/12/02 13:38:19;;;;;;;;;;;18.30;51.30;;;;;;10322511;28;94520;-65
2023/12/02 13:43:25;;;;;;;;;;;18.30;51.40;;;;;;10316033;28;94176;-64
2023/12/02 13:48:45;;;;;;;;;;;18.30;51.30;;;;;;10283388;28;92990;-64
2023/12/02 13:54:07;;;;;;;;;;;18.30;52.60;;;;;;10316930;28;94017;-65
2023/12/02 13:59:12;;;;;;;;;;;18.20;52.40;;;;;;10311761;28;94474;-65
2023/12/02 14:04:20;;;;;;;;;;;18.20;52.50;;;;;;10316374;28;97192;-65
2023/12/02 14:09:23;;;;;;;;;;;18.20;52.30;;;;;;10307590;28;93717;-64
2023/12/02 14:14:28;;;;;;;;;;;18.30;52.10;;;;;;10318817;28;93665;-65
2023/12/02 14:19:32;;;;;;;;;;;18.30;51.80;;;;;;10322449;28;93686;-65
2023/12/02 14:24:56;;;;;;;;;;;18.30;51.70;;;;;;10317619;28;94553;-66
2023/12/02 14:30:01;;;;;;;;;;;18.30;51.70;;;;;;10304049;28;93439;-64
2023/12/02 14:35:14;;;;;;;;;;;18.20;52.30;;;;;;10320404;28;94064;-65
2023/12/02 14:40:25;;;;;;;;;;;18.20;52.80;;;;;;10318917;28;92678;-65
2023/12/02 14:45:30;;;;;;;;;;;18.30;53.10;;;;;;10320636;28;94069;-65
2023/12/02 14:50:33;;;;;;;;;;;18.30;53.90;;;;;;10317258;28;94532;-65
2023/12/02 14:55:34;;;;;;;;;;;18.20;54.10;;;;;;10313269;28;96375;-66
2023/12/02 15:00:40;;;;;;;;;;;18.10;55.60;;;;;;10299422;28;94249;-65
2023/12/02 15:05:42;;;;;;;;;;;18.10;56.20;;;;;;10314633;28;93544;-67
2023/12/02 15:10:47;;;;;;;;;;;18.10;56.80;;;;;;10319755;28;93638;-66
2023/12/02 15:15:51;;;;;;;;;;;18.10;56.10;;;;;;10325311;28;93416;-65
2023/12/02 15:21:03;;;;;;;;;;;18.10;56.10;;;;;;10323923;28;94559;-66
2023/12/02 15:26:09;;;;;;;;;;;18.00;56.30;;;;;;10316732;28;93577;-66
2023/12/02 15:31:13;;;;;;;;;;;18.10;56.20;;;;;;10306103;28;93809;-66
2023/12/02 15:36:15;;;;;;;;;;;18.00;56.00;;;;;;10318980;28;94455;-67
2023/12/02 15:41:17;;;;;;;;;;;18.00;55.10;;;;;;10310448;28;93668;-66
2023/12/02 15:46:21;;;;;;;;;;;17.90;55.10;;;;;;10306327;28;96800;-66
2023/12/02 15:51:25;;;;;;;;;;;18.00;55.30;;;;;;10312830;28;93972;-67
2023/12/02 15:56:28;;;;;;;;;;;18.10;55.40;;;;;;10298276;28;93748;-67
2023/12/02 16:01:30;;;;;;;;;;;18.30;55.30;;;;;;10323260;28;93809;-66
2023/12/02 16:06:32;;;;;;;;;;;18.40;55.00;;;;;;10313368;28;93409;-67
2023/12/02 16:11:35;;;;;;;;;;;18.50;54.90;;;;;;10320105;28;94584;-67
2023/12/02 16:16:37;;;;;;;;;;;18.50;55.70;;;;;;10326001;28;94815;-65
2023/12/02 16:21:39;;;;;;;;;;;18.40;56.10;;;;;;10311588;28;93131;-71
2023/12/02 16:26:41;;;;;;;;;;;18.40;55.90;;;;;;10322639;28;93792;-67
2023/12/02 16:31:44;;;;;;;;;;;18.40;57.00;;;;;;10324172;28;93716;-65
2023/12/02 16:36:48;;;;;;;;;;;18.40;58.30;;;;;;10320695;28;97287;-69
2023/12/02 16:41:50;;;;;;;;;;;18.50;58.50;;;;;;10317499;28;94906;-71
2023/12/02 16:46:52;;;;;;;;;;;18.70;59.60;;;;;;10325338;28;93678;-67
2023/12/02 16:51:56;;;;;;;;;;;18.90;61.80;;;;;;10364777;28;92637;-69
2023/12/02 16:57:01;;;;;;;;;;;19.10;62.70;;;;;;10335660;28;93608;-67
2023/12/02 17:02:02;;;;;;;;;;;19.30;64.30;;;;;;10322032;28;94376;-67
2023/12/02 17:07:04;;;;;;;;;;;19.40;63.30;;;;;;10294065;28;94901;-67
2023/12/02 17:12:09;;;;;;;;;;;19.40;62.40;;;;;;10298925;28;92490;-66
2023/12/02 17:17:12;;;;;;;;;;;19.40;62.40;;;;;;10316951;28;94501;-66
2023/12/02 17:22:14;;;;;;;;;;;19.30;62.10;;;;;;10318783;28;93826;-66
2023/12/02 17:27:36;;;;;;;;;;;19.30;62.10;;;;;;10299982;28;97030;-66
2023/12/02 17:32:39;;;;;;;;;;;19.20;61.80;;;;;;10307903;28;96309;-65
2023/12/02 17:37:41;;;;;;;;;;;19.10;61.90;;;;;;10291651;28;93545;-63
2023/12/02 17:42:43;;;;;;;;;;;19.00;61.70;;;;;;10287966;28;94521;-64
2023/12/02 17:47:45;;;;;;;;;;;19.00;61.70;;;;;;10311959;28;94396;-67
2023/12/02 17:52:47;;;;;;;;;;;18.80;62.30;;;;;;10313103;28;93740;-66
2023/12/02 17:57:49;;;;;;;;;;;18.80;63.20;;;;;;10320027;28;93495;-66
2023/12/02 18:02:51;;;;;;;;;;;18.80;63.10;;;;;;10305404;28;92746;-66
2023/12/02 18:07:53;;;;;;;;;;;18.80;62.70;;;;;;10322135;28;93848;-66
2023/12/02 18:12:55;;;;;;;;;;;18.70;62.40;;;;;;10317658;28;94579;-66
2023/12/02 18:17:57;;;;;;;;;;;18.70;62.50;;;;;;10315137;28;95739;-67
2023/12/02 18:22:59;;;;;;;;;;;18.70;62.50;;;;;;10311658;28;94020;-65
2023/12/02 18:28:01;;;;;;;;;;;18.70;62.00;;;;;;10296858;28;93601;-66
2023/12/02 18:33:03;;;;;;;;;;;18.80;62.70;;;;;;10317886;28;94491;-66
2023/12/02 18:38:05;;;;;;;;;;;18.90;61.60;;;;;;10319198;28;93164;-66
2023/12/02 18:43:07;;;;;;;;;;;18.90;61.20;;;;;;10308578;28;92963;-66
2023/12/02 18:48:09;;;;;;;;;;;18.90;61.10;;;;;;10312516;28;93618;-66
2023/12/02 18:53:12;;;;;;;;;;;18.90;61.10;;;;;;10322745;28;92857;-65
2023/12/02 18:58:14;;;;;;;;;;;18.90;61.00;;;;;;10325346;28;94599;-66
2023/12/02 19:03:15;;;;;;;;;;;18.90;60.80;;;;;;10315744;28;93415;-65
2023/12/02 19:08:17;;;;;;;;;;;19.10;62.40;;;;;;10311327;28;95870;-64
2023/12/02 19:13:19;;;;;;;;;;;19.20;62.20;;;;;;10316482;28;94903;-65
2023/12/02 19:18:21;;;;;;;;;;;19.40;62.10;;;;;;10310755;28;93395;-66
2023/12/02 19:23:23;;;;;;;;;;;19.30;61.50;;;;;;10305374;28;94564;-65
2023/12/02 19:28:26;;;;;;;;;;;19.30;61.80;;;;;;10296259;28;93443;-65
2023/12/02 19:33:28;;;;;;;;;;;19.30;61.60;;;;;;10312566;28;93728;-66
2023/12/02 19:38:30;;;;;;;;;;;19.30;61.50;;;;;;10311948;28;92602;-65
2023/12/02 19:43:32;;;;;;;;;;;19.20;61.40;;;;;;10311620;28;93301;-66
2023/12/02 19:48:34;;;;;;;;;;;19.10;61.50;;;;;;10293759;28;94669;-65
2023/12/02 19:53:36;;;;;;;;;;;19.00;61.60;;;;;;10293547;28;97515;-65
2023/12/02 19:58:38;;;;;;;;;;;18.90;61.60;;;;;;10308468;28;96373;-65
2023/12/02 20:03:40;;;;;;;;;;;18.90;61.20;;;;;;10316193;28;93438;-65
2023/12/02 20:08:42;;;;;;;;;;;18.80;61.40;;;;;;10312562;28;93264;-66
2023/12/02 20:13:44;;;;;;;;;;;18.70;62.20;;;;;;10297284;28;94711;-65
2023/12/02 20:18:46;;;;;;;;;;;18.70;61.40;;;;;;10323654;28;94577;-65
2023/12/02 20:23:48;;;;;;;;;;;18.70;61.10;;;;;;10320338;28;93372;-66
2023/12/02 20:28:53;;;;;;;;;;;18.80;60.90;;;;;;10291971;28;94467;-66
2023/12/02 20:33:59;;;;;;;;;;;18.90;60.40;;;;;;10312877;28;93307;-67
2023/12/02 20:39:03;;;;;;;;;;;19.00;60.00;;;;;;10298649;28;94530;-68
2023/12/02 20:44:09;;;;;;;;;;;18.90;59.70;;;;;;10295023;28;94432;-65
2023/12/02 20:49:18;;;;;;;;;;;18.80;59.50;;;;;;10308972;28;95844;-65
2023/12/02 20:54:20;;;;;;;;;;;18.70;59.40;;;;;;10326120;28;94298;-65
2023/12/02 20:59:23;;;;;;;;;;;18.70;59.50;;;;;;10326393;28;93753;-65
2023/12/02 21:04:25;;;;;;;;;;;18.60;59.50;;;;;;10320262;28;93754;-65
2023/12/02 21:09:30;;;;;;;;;;;18.50;59.50;;;;;;10315629;28;93482;-65
2023/12/02 21:14:32;;;;;;;;;;;18.40;59.70;;;;;;10326160;28;94688;-66
2023/12/02 21:19:34;;;;;;;;;;;18.30;59.70;;;;;;10316713;28;96233;-66
2023/12/02 21:24:36;;;;;;;;;;;18.20;59.90;;;;;;10312701;28;92865;-66
2023/12/02 21:29:39;;;;;;;;;;;18.10;60.10;;;;;;10317475;28;94434;-66
2023/12/02 21:34:40;;;;;;;;;;;18.10;60.10;;;;;;10296397;28;95449;-65
2023/12/02 21:39:42;;;;;;;;;;;18.00;60.30;;;;;;10305559;28;96607;-65
2023/12/02 21:44:44;;;;;;;;;;;17.90;60.00;;;;;;10303448;28;93184;-65
2023/12/02 21:49:47;;;;;;;;;;;17.90;59.90;;;;;;10300206;28;93539;-65
2023/12/02 21:54:49;;;;;;;;;;;17.70;59.30;;;;;;10308836;28;93992;-65
2023/12/02 21:59:51;;;;;;;;;;;17.70;58.70;;;;;;10308243;28;95323;-66
2023/12/02 22:04:53;;;;;;;;;;;17.60;58.60;;;;;;10299877;28;94335;-66
2023/12/02 22:09:59;;;;;;;;;;;17.60;58.10;;;;;;10310150;28;94391;-66
2023/12/02 22:15:02;;;;;;;;;;;17.50;57.70;;;;;;10302469;28;92792;-65
2023/12/02 22:20:07;;;;;;;;;;;17.40;57.30;;;;;;10305179;28;113283;-66
2023/12/02 22:25:13;;;;;;;;;;;17.40;57.10;;;;;;10306846;28;94179;-65
2023/12/02 22:30:18;;;;;;;;;;;17.30;57.30;;;;;;10288200;28;96405;-66
2023/12/02 22:35:24;;;;;;;;;;;17.20;57.70;;;;;;10305332;28;93677;-66
2023/12/02 22:40:32;;;;;;;;;;;17.20;57.70;;;;;;10294660;28;94834;-67
2023/12/02 22:45:37;;;;;;;;;;;17.10;57.30;;;;;;10305847;28;94551;-65
2023/12/02 22:50:41;;;;;;;;;;;17.00;57.00;;;;;;10296379;28;93425;-66
2023/12/02 22:55:55;;;;;;;;;;;17.00;56.60;;;;;;10291045;28;94038;-66
2023/12/02 23:00:57;;;;;;;;;;;17.00;56.40;;;;;;10311437;28;96375;-66
2023/12/02 23:05:59;;;;;;;;;;;16.90;56.10;;;;;;10309100;28;93359;-66
2023/12/02 23:11:03;;;;;;;;;;;16.90;55.90;;;;;;10306083;28;94175;-65
2023/12/02 23:16:06;;;;;;;;;;;16.90;55.70;;;;;;10299233;28;93912;-65
2023/12/02 23:21:07;;;;;;;;;;;16.90;55.60;;;;;;10315080;28;95947;-65
2023/12/02 23:26:09;;;;;;;;;;;16.80;56.10;;;;;;10309478;28;93374;-65
2023/12/02 23:31:11;;;;;;;;;;;16.70;56.40;;;;;;10328859;28;93062;-66
2023/12/02 23:36:13;;;;;;;;;;;16.70;56.30;;;;;;10316176;28;94469;-65
2023/12/02 23:41:15;;;;;;;;;;;16.60;56.00;;;;;;10316000;28;93616;-66
2023/12/02 23:46:17;;;;;;;;;;;16.60;55.70;;;;;;10321375;28;94484;-66
2023/12/02 23:51:19;;;;;;;;;;;16.60;55.40;;;;;;10321512;28;94339;-66
2023/12/02 23:56:21;;;;;;;;;;;16.60;55.30;;;;;;10316660;28;92702;-66
